Time;durP1;ratioP1;P1;durP2;ratioP2;P2;SDS_P1;SDS_P2;PMS_P1;PMS_P2;Temp;Humidity;BMP_temperature;BMP_pressure;BME280_temperature;BME280_humidity;BME280_pressure;Samples;Min_cycle;Max_cycle;Signal;HPM_P1;HPM_P2
2021/04/06 00:00:55;;;;;;;6.25;3.53;;;11.10;80.10;;;;;;5035619;28;20053;-60
2021/04/06 00:03:26;;;;;;;5.20;2.97;;;11.10;80.00;;;;;;5019983;28;20376;-61
2021/04/06 00:06:04;;;;;;;6.05;3.22;;;11.00;80.20;;;;;;5052364;28;20064;-60
2021/04/06 00:08:32;;;;;;;5.30;2.97;;;11.10;80.40;;;;;;5052860;28;20118;-60
2021/04/06 00:11:04;;;;;;;5.13;3.05;;;11.00;80.40;;;;;;5020315;28;20049;-59
2021/04/06 00:13:35;;;;;;;4.32;2.90;;;11.10;80.30;;;;;;5053538;28;20053;-60
2021/04/06 00:16:05;;;;;;;7.70;3.72;;;11.10;80.70;;;;;;5053387;28;20140;-60
2021/04/06 00:18:35;;;;;;;7.53;4.10;;;11.00;80.70;;;;;;5053884;28;20055;-60
2021/04/06 00:21:04;;;;;;;9.15;5.47;;;11.00;79.50;;;;;;5036345;28;20056;-60
2021/04/06 00:23:32;;;;;;;9.70;5.03;;;10.90;79.30;;;;;;5052215;28;20055;-60
2021/04/06 00:26:01;;;;;;;6.03;3.78;;;10.80;79.00;;;;;;5053145;28;20144;-60
2021/04/06 00:28:34;;;;;;;5.20;3.35;;;10.80;79.10;;;;;;5052958;28;20053;-60
2021/04/06 00:31:03;;;;;;;5.50;3.03;;;10.70;78.90;;;;;;5035898;28;20410;-60
2021/04/06 00:33:52;;;;;;;5.97;3.63;;;10.70;79.00;;;;;;5052520;28;20453;-60
2021/04/06 00:36:26;;;;;;;3.53;2.08;;;10.60;79.40;;;;;;5052240;28;20103;-59
2021/04/06 00:38:57;;;;;;;5.53;2.72;;;10.60;79.80;;;;;;5052171;28;20080;-60
2021/04/06 00:41:25;;;;;;;3.35;2.22;;;10.50;79.80;;;;;;5052335;28;20045;-59
2021/04/06 00:43:52;;;;;;;2.75;2.00;;;10.40;79.90;;;;;;5052365;28;20403;-60
2021/04/06 00:46:27;;;;;;;4.45;2.25;;;10.20;80.30;;;;;;5052038;28;20045;-59
2021/04/06 00:48:56;;;;;;;3.47;2.50;;;10.20;80.40;;;;;;5051620;28;20049;-60
2021/04/06 00:51:24;;;;;;;6.90;3.38;;;10.10;80.50;;;;;;5051930;28;20053;-59
2021/04/06 00:53:57;;;;;;;4.13;2.63;;;10.00;80.80;;;;;;5019786;28;20044;-59
2021/04/06 00:56:30;;;;;;;3.63;2.45;;;9.90;80.70;;;;;;5052184;28;20045;-59
2021/04/06 00:59:01;;;;;;;;;;;9.90;80.80;;;;;;5052678;28;20061;-59
2021/04/06 01:01:44;;;;;;;4.70;2.83;;;9.80;80.70;;;;;;5052426;28;19924;-60
2021/04/06 01:04:21;;;;;;;5.60;2.95;;;9.70;81.10;;;;;;5051468;28;20053;-59
2021/04/06 01:06:57;;;;;;;4.32;3.05;;;9.60;81.20;;;;;;5051591;28;20545;-59
2021/04/06 01:09:50;;;;;;;4.75;2.78;;;9.60;81.60;;;;;;5035291;28;20048;-59
2021/04/06 01:12:22;;;;;;;4.63;2.78;;;9.60;81.70;;;;;;5035675;28;20064;-59
2021/04/06 01:14:54;;;;;;;5.10;2.85;;;9.60;81.50;;;;;;5052082;28;20037;-60
2021/04/06 01:17:34;;;;;;;5.28;3.17;;;9.60;81.80;;;;;;5019209;28;20053;-60
2021/04/06 01:20:11;;;;;;;5.85;3.58;;;9.50;82.10;;;;;;5052315;28;20053;-59
2021/04/06 01:22:40;;;;;;;6.25;3.95;;;9.40;82.60;;;;;;5035027;28;20510;-59
2021/04/06 01:25:25;;;;;;;5.70;3.67;;;9.40;82.90;;;;;;5052988;28;20060;-59
2021/04/06 01:28:03;;;;;;;4.85;2.83;;;9.30;83.00;;;;;;5035279;28;20049;-59
2021/04/06 01:30:43;;;;;;;5.85;4.35;;;9.20;83.20;;;;;;5035080;28;20071;-59
2021/04/06 01:33:20;;;;;;;6.13;3.47;;;9.20;83.30;;;;;;5035434;28;20049;-60
2021/04/06 01:35:48;;;;;;;;;;;9.30;83.30;;;;;;5052662;28;20404;-59
2021/04/06 01:38:16;;;;;;;4.03;3.20;;;9.20;83.50;;;;;;5051367;28;19956;-59
2021/04/06 01:40:45;;;;;;;6.22;3.63;;;9.20;83.80;;;;;;5051490;28;20053;-59
2021/04/06 01:43:15;;;;;;;5.28;2.97;;;9.20;83.60;;;;;;5051594;28;20063;-59
2021/04/06 01:45:46;;;;;;;8.85;4.20;;;9.20;83.60;;;;;;5052994;28;20389;-60
2021/04/06 01:48:18;;;;;;;5.97;3.35;;;9.20;83.70;;;;;;5035405;28;20060;-59
2021/04/06 01:50:51;;;;;;;5.88;2.95;;;9.20;83.90;;;;;;5052194;28;20396;-59
2021/04/06 01:53:20;;;;;;;5.15;3.28;;;9.20;84.00;;;;;;5052388;28;20136;-60
2021/04/06 01:55:51;;;;;;;6.10;3.67;;;9.20;83.60;;;;;;5051277;28;20056;-59
2021/04/06 01:58:21;;;;;;;6.50;3.55;;;9.20;83.60;;;;;;5051602;28;20055;-59
2021/04/06 02:03:27;;;;;;;4.35;3.53;;;9.20;83.40;;;;;;5051599;28;20045;-59
2021/04/06 02:05:55;;;;;;;6.70;3.05;;;9.10;83.40;;;;;;5018238;28;20403;-59
2021/04/06 02:08:25;;;;;;;4.50;3.03;;;9.10;83.60;;;;;;5037781;28;20344;-60
2021/04/06 02:10:53;;;;;;;4.82;3.20;;;9.10;83.90;;;;;;5056348;28;20128;-60
2021/04/06 02:13:20;;;;;;;4.45;3.15;;;9.10;84.10;;;;;;5055272;28;20045;-61
2021/04/06 02:16:00;;;;;;;6.05;3.67;;;9.10;84.00;;;;;;5055271;28;20053;-60
2021/04/06 02:18:30;;;;;;;5.07;2.97;;;9.20;83.90;;;;;;5056426;28;20102;-60
2021/04/06 02:21:05;;;;;;;5.70;3.35;;;9.20;83.80;;;;;;5055014;28;20053;-60
2021/04/06 02:23:43;;;;;;;4.05;2.53;;;9.30;83.90;;;;;;5055649;28;20098;-60
2021/04/06 02:26:14;;;;;;;4.25;2.25;;;9.30;83.70;;;;;;5056099;28;20505;-60
2021/04/06 02:28:42;;;;;;;4.63;3.10;;;9.40;83.80;;;;;;5054820;28;20072;-60
2021/04/06 02:31:09;;;;;;;7.70;3.47;;;9.50;83.70;;;;;;5054839;28;20152;-60
2021/04/06 02:33:37;;;;;;;4.50;2.80;;;9.50;83.50;;;;;;5054773;28;20045;-60
2021/04/06 02:36:08;;;;;;;3.50;2.15;;;9.60;83.40;;;;;;5055091;28;20056;-60
2021/04/06 02:38:42;;;;;;;4.68;2.35;;;9.60;83.30;;;;;;5037489;28;20068;-60
2021/04/06 02:41:15;;;;;;;4.43;2.85;;;9.70;83.30;;;;;;5054447;28;20115;-60
2021/04/06 02:43:49;;;;;;;4.70;2.45;;;9.70;83.20;;;;;;5050841;28;20053;-60
2021/04/06 02:46:24;;;;;;;5.70;3.22;;;9.60;82.60;;;;;;5055871;28;20076;-60
2021/04/06 02:48:54;;;;;;;3.45;2.72;;;9.70;82.70;;;;;;5021854;28;20388;-60
2021/04/06 02:51:22;;;;;;;4.07;2.50;;;9.70;83.00;;;;;;5037964;28;20041;-60
2021/04/06 02:53:51;;;;;;;4.20;2.50;;;9.70;82.90;;;;;;5037039;28;20045;-60
2021/04/06 02:56:38;;;;;;;4.25;2.60;;;9.70;82.80;;;;;;5054146;28;20065;-60
2021/04/06 02:59:19;;;;;;;3.90;2.35;;;9.70;82.80;;;;;;5054275;28;20045;-60
2021/04/06 03:01:47;;;;;;;3.53;2.75;;;9.80;82.60;;;;;;5054503;28;20046;-60
2021/04/06 03:04:15;;;;;;;4.68;2.72;;;9.80;82.80;;;;;;5054461;28;20460;-60
2021/04/06 03:06:43;;;;;;;5.20;2.78;;;9.70;82.50;;;;;;5037759;28;20059;-60
2021/04/06 03:09:15;;;;;;;5.45;2.40;;;9.70;82.90;;;;;;5053331;28;20080;-60
2021/04/06 03:11:53;;;;;;;4.00;2.25;;;9.60;82.90;;;;;;5053501;28;20056;-60
2021/04/06 03:14:25;;;;;;;6.45;2.53;;;9.60;83.10;;;;;;5054054;28;20128;-60
2021/04/06 03:16:53;;;;;;;4.40;2.22;;;9.60;83.30;;;;;;5054109;28;20049;-60
2021/04/06 03:19:31;;;;;;;4.20;2.22;;;9.60;83.30;;;;;;5021363;28;20045;-60
2021/04/06 03:21:59;;;;;;;4.07;2.45;;;9.60;83.50;;;;;;5054223;28;20444;-60
2021/04/06 03:24:30;;;;;;;3.67;2.10;;;9.60;83.50;;;;;;5037071;28;20514;-60
2021/04/06 03:27:01;;;;;;;4.05;2.30;;;9.50;83.60;;;;;;5020539;28;20091;-60
2021/04/06 03:29:30;;;;;;;4.30;2.75;;;9.50;83.70;;;;;;5055279;28;20071;-60
2021/04/06 03:31:58;;;;;;;3.83;2.22;;;9.40;83.80;;;;;;5053595;28;20056;-60
2021/04/06 03:34:40;;;;;;;4.55;2.03;;;9.40;83.80;;;;;;5037039;28;20076;-60
2021/04/06 03:37:08;;;;;;;3.58;2.00;;;9.30;83.90;;;;;;5037481;28;20049;-60
2021/04/06 03:39:36;;;;;;;3.78;2.33;;;9.20;84.00;;;;;;5037058;28;20045;-60
2021/04/06 03:42:04;;;;;;;3.30;1.73;;;9.20;84.30;;;;;;5059768;28;20082;-60
2021/04/06 03:44:32;;;;;;;3.35;2.22;;;9.10;84.60;;;;;;5076892;28;20070;-60
2021/04/06 03:47:02;;;;;;;4.97;2.30;;;9.10;84.70;;;;;;5077010;28;20101;-60
2021/04/06 03:49:31;;;;;;;3.63;2.00;;;9.10;84.90;;;;;;5060382;28;20050;-60
2021/04/06 03:52:07;;;;;;;4.07;2.92;;;9.00;85.30;;;;;;5076845;28;20048;-60
2021/04/06 03:54:44;;;;;;;4.53;2.38;;;9.00;84.80;;;;;;5060513;28;20488;-60
2021/04/06 04:00:13;;;;;;;3.88;2.47;;;8.90;85.10;;;;;;5094587;28;20131;-60
2021/04/06 04:02:40;;;;;;;3.60;2.33;;;8.90;85.20;;;;;;5094639;28;20139;-60
2021/04/06 04:05:08;;;;;;;5.43;2.97;;;8.90;85.50;;;;;;5094632;28;20142;-60
2021/04/06 04:07:36;;;;;;;3.97;3.05;;;8.90;85.60;;;;;;5076702;28;20059;-60
2021/04/06 04:10:08;;;;;;;5.82;2.95;;;8.90;85.40;;;;;;5076348;28;20051;-60
2021/04/06 04:12:35;;;;;;;5.53;3.33;;;9.00;84.80;;;;;;5093738;28;20051;-60
2021/04/06 04:15:05;;;;;;;4.90;2.80;;;9.00;83.90;;;;;;5059416;28;20076;-60
2021/04/06 04:17:32;;;;;;;4.60;2.92;;;9.00;83.90;;;;;;5076161;28;20059;-60
2021/04/06 04:19:59;;;;;;;5.60;3.10;;;8.90;83.50;;;;;;5094326;28;20052;-60
2021/04/06 04:22:27;;;;;;;6.00;3.13;;;8.90;83.70;;;;;;5059854;28;20085;-60
2021/04/06 04:24:55;;;;;;;4.93;3.22;;;9.00;83.90;;;;;;5094292;28;20048;-60
2021/04/06 04:27:22;;;;;;;5.85;3.45;;;9.00;84.00;;;;;;5075666;28;20516;-60
2021/04/06 04:29:49;;;;;;;5.95;3.45;;;9.10;84.20;;;;;;5093225;28;20048;-60
2021/04/06 04:32:16;;;;;;;5.35;3.28;;;9.00;83.40;;;;;;5075738;28;20051;-60
2021/04/06 04:34:43;;;;;;;6.78;4.15;;;9.10;83.10;;;;;;5093910;28;20055;-60
2021/04/06 04:37:14;;;;;;;5.75;4.25;;;9.10;83.40;;;;;;5076529;28;20163;-60
2021/04/06 04:39:42;;;;;;;5.47;4.00;;;9.00;83.50;;;;;;5076154;28;20515;-60
2021/04/06 04:42:18;;;;;;;6.10;4.20;;;9.00;83.60;;;;;;5075195;28;20084;-60
2021/04/06 04:44:46;;;;;;;5.80;3.70;;;9.10;83.60;;;;;;5092454;28;20055;-60
2021/04/06 04:47:13;;;;;;;5.72;3.42;;;9.20;83.20;;;;;;5074850;28;20051;-60
2021/04/06 04:49:40;;;;;;;4.18;3.05;;;9.20;82.40;;;;;;5074973;28;20047;-60
2021/04/06 04:52:08;;;;;;;5.75;3.90;;;9.40;82.20;;;;;;5074910;28;20055;-60
2021/04/06 04:54:35;;;;;;;4.75;3.25;;;9.50;81.50;;;;;;5075192;28;20127;-60
2021/04/06 04:57:02;;;;;;;7.40;3.17;;;9.70;80.90;;;;;;5093027;28;20048;-60
2021/04/06 04:59:30;;;;;;;6.68;3.30;;;9.80;79.40;;;;;;5040711;28;20052;-60
2021/04/06 05:01:57;;;;;;;3.67;2.97;;;9.90;78.50;;;;;;5074464;28;20502;-60
2021/04/06 05:04:24;;;;;;;3.13;2.22;;;10.10;77.10;;;;;;5074583;28;20044;-60
2021/04/06 05:06:51;;;;;;;4.43;2.65;;;10.20;75.90;;;;;;5092643;28;20048;-60
2021/04/06 05:09:18;;;;;;;3.78;2.42;;;10.30;75.60;;;;;;5092716;28;20482;-60
2021/04/06 05:11:45;;;;;;;3.90;2.45;;;10.40;74.90;;;;;;5092677;28;20048;-60
2021/04/06 05:14:13;;;;;;;3.53;2.22;;;10.50;74.70;;;;;;5074071;28;20470;-60
2021/04/06 05:16:40;;;;;;;3.95;2.35;;;10.80;74.90;;;;;;5073834;28;20485;-60
2021/04/06 05:19:07;;;;;;;3.28;2.40;;;11.00;75.10;;;;;;5074571;28;20064;-60
2021/04/06 05:21:34;;;;;;;4.07;2.42;;;11.10;75.10;;;;;;5074316;28;20050;-60
2021/04/06 05:24:02;;;;;;;4.28;2.58;;;11.30;75.20;;;;;;5074793;28;20496;-60
2021/04/06 05:26:30;;;;;;;5.05;2.70;;;11.50;75.60;;;;;;5074962;28;20063;-60
2021/04/06 05:28:57;;;;;;;4.70;2.45;;;11.60;75.80;;;;;;5074371;28;20074;-61
2021/04/06 05:31:24;;;;;;;3.80;2.20;;;11.80;75.80;;;;;;5091449;28;20540;-60
2021/04/06 05:33:55;;;;;;;5.50;3.13;;;12.00;75.60;;;;;;5074225;28;20398;-60
2021/04/06 05:36:22;;;;;;;3.67;2.40;;;12.10;74.50;;;;;;5074643;28;20059;-60
2021/04/06 05:38:51;;;;;;;4.03;2.97;;;12.30;74.10;;;;;;5058039;28;20040;-60
2021/04/06 05:41:19;;;;;;;4.32;2.60;;;12.40;73.70;;;;;;5074942;28;20051;-60
2021/04/06 05:43:47;;;;;;;4.50;2.50;;;12.60;73.90;;;;;;5050137;28;829490;-60
2021/04/06 05:46:15;;;;;;;4.55;2.97;;;12.70;73.80;;;;;;5045439;28;20043;-60
2021/04/06 05:48:44;;;;;;;4.72;3.28;;;12.80;74.10;;;;;;5062162;28;20052;-60
2021/04/06 05:51:15;;;;;;;5.72;2.72;;;12.90;74.60;;;;;;5079213;28;20056;-61
2021/04/06 05:53:43;;;;;;;5.57;2.60;;;13.20;75.40;;;;;;5079264;28;20048;-60
2021/04/06 05:56:10;;;;;;;4.15;2.45;;;13.40;76.10;;;;;;5079189;28;20048;-60
2021/04/06 05:58:47;;;;;;;3.58;2.08;;;13.70;76.90;;;;;;5080078;28;20482;-61
2021/04/06 06:01:17;;;;;;;4.00;2.40;;;13.90;77.30;;;;;;5062153;28;20094;-60
2021/04/06 06:03:44;;;;;;;6.75;2.53;;;14.20;77.90;;;;;;5078699;28;20052;-60
2021/04/06 06:06:15;;;;;;;4.72;2.47;;;14.40;78.60;;;;;;5063442;28;20067;-60
2021/04/06 06:08:47;;;;;;;6.65;2.75;;;14.50;78.60;;;;;;5078063;28;20044;-60
2021/04/06 06:11:15;;;;;;;4.05;2.75;;;14.70;79.10;;;;;;5096816;28;20059;-61
2021/04/06 06:13:46;;;;;;;4.10;2.38;;;14.80;79.40;;;;;;5078849;28;20048;-60
2021/04/06 06:16:20;;;;;;;4.10;2.17;;;14.90;79.90;;;;;;5078324;28;20135;-60
2021/04/06 06:19:11;;;;;;;3.22;2.35;;;15.10;80.00;;;;;;5096161;28;20456;-60
2021/04/06 06:21:43;;;;;;;5.43;2.78;;;15.20;80.30;;;;;;5083959;28;20440;-61
2021/04/06 06:24:24;;;;;;;6.13;2.30;;;15.40;80.50;;;;;;5045431;28;20040;-60
2021/04/06 06:26:52;;;;;;;6.25;3.13;;;15.50;80.60;;;;;;5061888;28;20190;-61
2021/04/06 06:29:35;;;;;;;5.90;2.55;;;15.50;80.90;;;;;;5081171;28;20409;-61
2021/04/06 06:32:03;;;;;;;3.33;2.25;;;15.70;81.10;;;;;;5078064;28;20052;-61
2021/04/06 06:34:35;;;;;;;4.07;1.90;;;15.70;81.80;;;;;;5077375;28;20036;-61
2021/04/06 06:37:22;;;;;;;4.05;2.17;;;15.70;82.30;;;;;;5090538;28;20048;-61
2021/04/06 06:39:59;;;;;;;5.15;2.42;;;15.80;84.20;;;;;;5077927;28;20048;-61
2021/04/06 06:42:34;;;;;;;4.03;2.65;;;16.10;83.40;;;;;;5095399;28;20063;-61
2021/04/06 06:45:20;;;;;;;2.97;2.20;;;16.20;83.10;;;;;;5092151;28;20044;-61
2021/04/06 06:47:57;;;;;;;3.72;2.45;;;16.40;82.70;;;;;;5070909;28;20048;-61
2021/04/06 06:50:26;;;;;;;3.85;1.92;;;16.60;83.00;;;;;;5085433;28;20047;-61
2021/04/06 06:52:54;;;;;;;4.68;2.63;;;16.90;82.90;;;;;;5054369;28;20059;-61
2021/04/06 06:55:24;;;;;;;5.45;2.33;;;17.10;82.20;;;;;;5091854;28;20504;-61
2021/04/06 06:58:05;;;;;;;3.15;2.05;;;17.20;81.70;;;;;;5073013;28;20048;-61
2021/04/06 07:00:33;;;;;;;2.88;1.90;;;17.20;81.60;;;;;;5038935;28;20398;-62
2021/04/06 07:03:15;;;;;;;2.60;1.90;;;17.30;81.60;;;;;;5071581;28;20123;-63
2021/04/06 07:05:42;;;;;;;3.97;2.33;;;17.50;81.80;;;;;;5088893;28;20044;-63
2021/04/06 07:08:10;;;;;;;3.78;1.70;;;17.70;81.00;;;;;;5067984;28;20131;-63
2021/04/06 07:10:40;;;;;;;3.67;2.00;;;17.80;80.70;;;;;;5072621;28;20137;-62
2021/04/06 07:13:24;;;;;;;5.50;1.70;;;17.80;80.60;;;;;;5071575;28;20052;-64
2021/04/06 07:15:54;;;;;;;5.93;2.47;;;18.00;79.70;;;;;;5085148;28;20051;-64
2021/04/06 07:18:26;;;;;;;10.23;5.13;;;18.10;78.30;;;;;;5084338;28;20044;-64
2021/04/06 07:20:58;;;;;;;7.18;2.70;;;18.00;78.40;;;;;;5067550;28;20559;-64
2021/04/06 07:23:44;;;;;;;4.10;2.13;;;18.10;77.90;;;;;;5067800;28;20060;-62
2021/04/06 07:26:15;;;;;;;4.82;1.92;;;18.20;77.40;;;;;;5070307;28;20043;-64
2021/04/06 07:28:43;;;;;;;4.13;1.70;;;18.20;77.70;;;;;;5084836;28;20490;-64
2021/04/06 07:31:14;;;;;;;3.38;1.88;;;18.20;77.70;;;;;;5065338;28;20482;-64
2021/04/06 07:33:48;;;;;;;4.07;2.75;;;18.40;78.10;;;;;;5087282;28;20397;-64
2021/04/06 07:36:27;;;;;;;3.17;1.70;;;18.30;76.40;;;;;;5066985;28;20040;-64
2021/04/06 07:39:07;;;;;;;3.85;2.08;;;18.40;77.40;;;;;;5083073;28;20056;-63
2021/04/06 07:41:46;;;;;;;3.38;2.25;;;18.50;77.20;;;;;;5070719;28;20374;-64
2021/04/06 07:44:16;;;;;;;5.43;2.30;;;18.70;76.80;;;;;;5064766;28;20125;-64
2021/04/06 07:46:48;;;;;;;3.22;1.80;;;18.90;76.00;;;;;;5045396;28;20134;-63
2021/04/06 07:49:22;;;;;;;3.95;2.25;;;19.00;74.90;;;;;;5068331;28;20045;-63
2021/04/06 07:51:55;;;;;;;2.97;2.00;;;19.20;74.70;;;;;;5070580;28;20109;-64
2021/04/06 07:54:47;;;;;;;3.70;2.10;;;19.30;73.90;;;;;;5073096;28;20040;-63
2021/04/06 07:57:15;;;;;;;3.60;2.33;;;19.40;72.60;;;;;;5074163;28;20530;-63
2021/04/06 07:59:49;;;;;;;6.15;2.00;;;19.50;72.80;;;;;;5057004;28;20044;-63
2021/04/06 08:02:23;;;;;;;5.32;1.85;;;19.60;72.60;;;;;;5057195;28;20465;-63
2021/04/06 08:04:53;;;;;;;3.70;1.77;;;19.50;72.10;;;;;;5055018;28;20099;-63
2021/04/06 08:07:21;;;;;;;3.10;1.60;;;19.60;70.90;;;;;;5074420;28;20044;-63
2021/04/06 08:09:50;;;;;;;3.17;2.10;;;19.40;69.40;;;;;;5072975;28;20090;-63
2021/04/06 08:12:33;;;;;;;2.85;2.05;;;19.20;70.70;;;;;;5074351;28;20045;-63
2021/04/06 08:15:20;;;;;;;3.80;1.67;;;19.40;71.00;;;;;;5069858;28;20110;-63
2021/04/06 08:17:49;;;;;;;3.58;1.50;;;19.20;70.20;;;;;;5074343;28;20045;-64
2021/04/06 08:20:19;;;;;;;4.10;1.98;;;18.90;69.80;;;;;;5072833;28;20041;-64
2021/04/06 08:22:51;;;;;;;6.15;1.98;;;19.20;70.90;;;;;;5074125;28;20076;-63
2021/04/06 08:25:19;;;;;;;1.80;1.40;;;18.90;70.00;;;;;;5073352;28;20048;-63
2021/04/06 08:27:48;;;;;;;3.17;1.70;;;18.90;70.50;;;;;;5072084;28;20053;-63
2021/04/06 08:30:27;;;;;;;2.75;1.42;;;19.10;71.60;;;;;;5073619;28;20048;-63
2021/04/06 08:32:57;;;;;;;;;;;19.10;70.90;;;;;;5071395;28;20048;-64
2021/04/06 08:35:49;;;;;;;3.15;1.60;;;19.00;69.90;;;;;;5070842;28;19927;-63
2021/04/06 08:38:23;;;;;;;2.63;1.25;;;19.10;69.30;;;;;;5072013;28;20049;-64
2021/04/06 08:41:05;;;;;;;2.83;1.98;;;19.20;69.50;;;;;;5055510;28;20444;-64
2021/04/06 08:43:42;;;;;;;2.58;1.40;;;19.30;70.00;;;;;;5055939;28;20606;-64
2021/04/06 08:46:10;;;;;;;2.97;1.52;;;19.20;70.30;;;;;;5035219;28;20135;-64
2021/04/06 08:48:50;;;;;;;;;;;;;;;;;;;;;
2021/04/06 08:51:27;;;;;;;5.57;1.60;;;19.00;71.30;;;;;;5032615;28;20487;-63
2021/04/06 08:53:58;;;;;;;2.72;1.63;;;19.00;71.80;;;;;;5050920;28;20055;-64
2021/04/06 08:56:31;;;;;;;4.45;2.13;;;18.90;72.50;;;;;;5044142;28;20376;-64
2021/04/06 08:59:20;;;;;;;2.88;1.60;;;19.00;72.50;;;;;;5050668;28;20125;-64
2021/04/06 09:02:05;;;;;;;4.78;2.10;;;19.00;72.40;;;;;;5053505;28;20203;-63
2021/04/06 09:04:40;;;;;;;2.75;1.65;;;19.00;72.50;;;;;;5051523;28;20395;-63
2021/04/06 09:07:21;;;;;;;3.95;1.70;;;18.80;71.60;;;;;;5050113;28;20602;-63
2021/04/06 09:09:58;;;;;;;3.65;1.90;;;18.70;71.10;;;;;;5052935;28;20059;-63
2021/04/06 09:12:35;;;;;;;5.30;2.63;;;18.60;71.00;;;;;;5051861;28;20056;-63
2021/04/06 09:15:07;;;;;;;5.00;2.03;;;18.60;71.40;;;;;;5053030;28;20091;-63
2021/04/06 09:17:36;;;;;;;3.08;1.88;;;18.80;71.10;;;;;;5052247;28;20414;-63
2021/04/06 09:20:15;;;;;;;4.72;1.70;;;18.80;70.00;;;;;;5053062;28;20380;-63
2021/04/06 09:22:46;;;;;;;2.25;1.55;;;19.00;69.80;;;;;;5053240;28;20060;-63
2021/04/06 09:25:24;;;;;;;3.47;1.63;;;19.20;69.20;;;;;;5051954;28;20499;-63
2021/04/06 09:28:05;;;;;;;5.95;2.25;;;19.40;69.90;;;;;;5035227;28;20045;-63
2021/04/06 09:30:40;;;;;;;14.80;2.08;;;19.70;69.90;;;;;;5053125;28;20052;-63
2021/04/06 09:33:13;;;;;;;2.35;1.42;;;19.80;67.80;;;;;;5053130;28;20057;-63
2021/04/06 09:35:49;;;;;;;2.97;1.60;;;19.80;65.70;;;;;;5051861;28;20057;-63
2021/04/06 09:38:25;;;;;;;2.90;1.63;;;19.70;66.60;;;;;;5035906;28;20052;-62
2021/04/06 09:40:56;;;;;;;3.33;1.65;;;19.70;68.40;;;;;;5051999;28;20045;-62
2021/04/06 09:43:24;;;;;;;4.30;1.65;;;19.70;68.30;;;;;;5048811;28;20063;-63
2021/04/06 09:45:51;;;;;;;2.67;1.25;;;19.70;68.00;;;;;;5071920;28;20405;-64
2021/04/06 09:48:20;;;;;;;2.13;1.35;;;19.70;68.30;;;;;;5071671;28;20056;-63
2021/04/06 09:51:05;;;;;;;3.88;2.40;;;19.70;67.00;;;;;;5055363;28;20056;-62
2021/04/06 09:53:37;;;;;;;4.13;1.65;;;19.70;67.40;;;;;;5071640;28;20106;-60
2021/04/06 09:56:08;;;;;;;2.60;1.55;;;19.70;68.70;;;;;;5055104;28;20139;-63
2021/04/06 09:58:36;;;;;;;3.05;1.50;;;19.90;67.80;;;;;;5055157;28;20135;-64
2021/04/06 10:01:25;;;;;;;2.25;1.25;;;20.00;66.60;;;;;;5071814;28;20059;-63
2021/04/06 10:03:59;;;;;;;3.35;1.70;;;20.20;66.50;;;;;;5071691;28;20052;-63
2021/04/06 10:06:45;;;;;;;5.55;1.50;;;20.10;65.10;;;;;;5038621;28;20045;-63
2021/04/06 10:09:20;;;;;;;3.63;1.73;;;20.30;65.40;;;;;;5072753;28;20503;-60
2021/04/06 10:11:49;;;;;;;7.22;2.85;;;20.40;65.70;;;;;;5054953;28;20054;-62
2021/04/06 10:14:21;;;;;;;12.85;3.17;;;20.30;65.00;;;;;;5054904;28;20059;-62
2021/04/06 10:17:05;;;;;;;12.63;3.80;;;20.30;66.00;;;;;;5072698;28;20063;-62
2021/04/06 10:19:35;;;;;;;44.97;9.65;;;20.40;65.80;;;;;;5054482;28;20445;-62
2021/04/06 10:22:08;;;;;;;20.35;7.32;;;20.40;66.60;;;;;;5071476;28;20056;-62
2021/04/06 10:24:54;;;;;;;22.35;4.03;;;20.20;64.70;;;;;;5054779;28;20044;-62
2021/04/06 10:28:03;;;;;;;56.30;10.38;;;20.10;66.10;;;;;;5073207;28;20039;-62
2021/04/06 10:30:42;;;;;;;9.07;3.25;;;20.00;64.40;;;;;;4982012;28;20053;-63
2021/04/06 10:33:21;;;;;;;3.10;1.85;;;19.90;66.00;;;;;;5069803;28;20044;-63
2021/04/06 10:35:52;;;;;;;9.48;2.20;;;19.60;64.90;;;;;;5076134;28;20045;-63
2021/04/06 10:38:29;;;;;;;2.17;1.40;;;19.60;63.10;;;;;;5074908;28;20052;-63
2021/04/06 10:41:06;;;;;;;3.53;1.48;;;19.80;64.60;;;;;;5076074;28;20052;-63
2021/04/06 10:43:40;;;;;;;2.47;1.30;;;19.90;62.30;;;;;;5091262;28;20055;-63
2021/04/06 10:46:17;;;;;;;3.08;1.92;;;20.10;62.50;;;;;;5096318;28;20482;-62
2021/04/06 10:48:51;;;;;;;4.82;1.73;;;20.10;62.10;;;;;;5061608;28;20044;-62
2021/04/06 10:51:24;;;;;;;3.15;1.73;;;20.00;62.70;;;;;;5095942;28;20052;-62
2021/04/06 10:54:09;;;;;;;2.58;1.70;;;19.80;62.90;;;;;;5078174;28;20048;-62
2021/04/06 10:56:43;;;;;;;2.10;1.38;;;19.80;64.40;;;;;;5096041;28;20048;-62
2021/04/06 10:59:16;;;;;;;3.90;1.55;;;19.90;64.20;;;;;;5096055;28;20044;-62
2021/04/06 11:01:52;;;;;;;2.93;1.93;;;20.00;64.50;;;;;;5061099;28;20469;-62
2021/04/06 11:04:25;;;;;;;3.72;2.10;;;20.20;63.90;;;;;;5095881;28;20056;-62
2021/04/06 11:06:59;;;;;;;3.50;1.95;;;20.30;65.30;;;;;;5061213;28;20125;-62
2021/04/06 11:09:44;;;;;;;5.70;2.67;;;20.30;64.90;;;;;;5095790;28;20059;-62
2021/04/06 11:12:14;;;;;;;3.90;1.85;;;20.10;64.40;;;;;;5061120;28;20093;-62
2021/04/06 11:14:43;;;;;;;6.97;2.40;;;20.00;63.90;;;;;;5077677;28;20378;-62
2021/04/06 11:17:14;;;;;;;2.47;1.42;;;20.10;64.10;;;;;;5077409;28;20052;-62
2021/04/06 11:19:55;;;;;;;7.10;2.17;;;20.20;63.70;;;;;;5078014;28;20044;-62
2021/04/06 11:22:25;;;;;;;3.92;2.05;;;19.70;64.60;;;;;;5061366;28;20134;-62
2021/04/06 11:24:53;;;;;;;3.60;2.20;;;19.70;65.40;;;;;;5095321;28;20048;-62
2021/04/06 11:27:21;;;;;;;3.88;2.45;;;19.80;64.60;;;;;;5060758;28;20078;-62
2021/04/06 11:29:54;;;;;;;5.60;3.03;;;19.70;64.40;;;;;;5077406;28;20040;-62
2021/04/06 11:32:24;;;;;;;5.07;2.60;;;19.60;65.30;;;;;;5077275;28;20066;-62
2021/04/06 11:34:54;;;;;;;6.30;2.83;;;19.70;65.00;;;;;;5077971;28;20055;-62
2021/04/06 11:37:22;;;;;;;5.13;2.95;;;19.70;65.20;;;;;;4752273;28;20620;-52
2021/04/06 11:39:53;;;;;;;5.85;2.30;;;19.50;65.60;;;;;;5091863;28;20048;-62
2021/04/06 11:42:29;;;;;;;3.30;1.80;;;19.50;66.00;;;;;;5094472;28;20124;-62
2021/04/06 11:45:03;;;;;;;5.13;2.63;;;19.50;65.00;;;;;;5076622;28;20466;-63
2021/04/06 11:47:31;;;;;;;4.53;2.97;;;19.20;64.60;;;;;;5093177;28;20489;-63
2021/04/06 11:50:00;;;;;;;4.28;2.45;;;19.10;65.50;;;;;;5076748;28;20044;-63
2021/04/06 11:52:28;;;;;;;5.50;3.05;;;19.00;66.00;;;;;;5060206;28;20056;-62
2021/04/06 11:54:56;;;;;;;5.25;3.28;;;19.20;66.00;;;;;;5076564;28;20066;-63
2021/04/06 11:57:24;;;;;;;4.13;2.20;;;19.20;66.90;;;;;;5076884;28;20048;-63
2021/04/06 11:59:52;;;;;;;5.22;2.25;;;19.20;66.80;;;;;;5076659;28;20490;-63
2021/04/06 12:02:20;;;;;;;1.98;1.30;;;19.10;66.60;;;;;;5059927;28;20138;-63
2021/04/06 12:04:47;;;;;;;2.42;1.65;;;19.00;66.60;;;;;;5076087;28;20048;-63
2021/04/06 12:07:15;;;;;;;3.22;1.50;;;18.90;67.50;;;;;;5076696;28;20075;-63
2021/04/06 12:09:44;;;;;;;2.65;1.60;;;19.10;68.60;;;;;;5041172;28;20083;-62
2021/04/06 12:12:12;;;;;;;2.33;1.50;;;19.20;68.30;;;;;;5075624;28;20051;-63
2021/04/06 12:14:39;;;;;;;3.00;1.45;;;19.10;68.20;;;;;;5076204;28;20062;-63
2021/04/06 12:17:07;;;;;;;3.17;1.83;;;19.00;68.20;;;;;;5076171;28;20545;-63
2021/04/06 12:19:35;;;;;;;6.03;2.88;;;19.00;68.80;;;;;;5042209;28;20556;-63
2021/04/06 12:22:02;;;;;;;3.13;1.35;;;18.90;68.50;;;;;;5076105;28;20058;-63
2021/04/06 12:24:30;;;;;;;3.35;1.98;;;18.70;69.00;;;;;;5059744;28;20493;-63
2021/04/06 12:27:03;;;;;;;4.20;2.00;;;18.80;69.00;;;;;;5093811;28;20047;-63
2021/04/06 12:29:31;;;;;;;2.15;1.45;;;18.70;68.70;;;;;;5093816;28;20048;-63
2021/04/06 12:32:02;;;;;;;3.40;1.77;;;18.70;68.80;;;;;;5075901;28;20127;-63
2021/04/06 12:34:30;;;;;;;2.45;1.58;;;18.70;69.20;;;;;;5059379;28;20048;-63
2021/04/06 12:36:58;;;;;;;2.42;1.70;;;18.70;68.40;;;;;;5075695;28;20056;-63
2021/04/06 12:39:46;;;;;;;3.35;1.40;;;18.70;67.90;;;;;;5078624;28;20101;-63
2021/04/06 12:42:14;;;;;;;2.58;1.23;;;18.50;67.40;;;;;;5058911;28;20109;-63
2021/04/06 12:44:43;;;;;;;2.78;1.30;;;18.40;68.40;;;;;;5093356;28;20079;-63
2021/04/06 12:47:13;;;;;;;2.92;1.63;;;18.40;69.20;;;;;;5075853;28;20044;-63
2021/04/06 12:49:40;;;;;;;3.50;1.40;;;18.40;69.00;;;;;;5075598;28;20066;-63
2021/04/06 12:52:08;;;;;;;2.58;1.85;;;18.40;69.50;;;;;;5093023;28;20075;-63
2021/04/06 12:54:46;;;;;;;3.55;1.58;;;18.50;70.70;;;;;;5058313;28;20044;-63
2021/04/06 12:57:13;;;;;;;2.03;1.35;;;18.50;70.80;;;;;;5091422;28;20040;-63
2021/04/06 12:59:41;;;;;;;3.47;1.80;;;18.50;71.10;;;;;;5072885;28;20087;-63
2021/04/06 13:02:12;;;;;;;4.05;1.85;;;18.50;72.40;;;;;;5073863;28;20555;-63
2021/04/06 13:04:42;;;;;;;5.20;1.90;;;18.60;72.70;;;;;;5059423;28;20036;-63
2021/04/06 13:07:10;;;;;;;5.10;2.25;;;18.60;72.90;;;;;;5058691;28;20505;-63
2021/04/06 13:09:38;;;;;;;2.40;1.50;;;18.70;73.40;;;;;;5058763;28;20070;-63
2021/04/06 13:12:09;;;;;;;4.05;2.00;;;18.70;73.70;;;;;;5092992;28;20048;-63
2021/04/06 13:14:38;;;;;;;4.13;1.88;;;18.80;74.60;;;;;;5093368;28;20137;-63
2021/04/06 13:17:06;;;;;;;3.65;2.28;;;18.60;74.30;;;;;;5093098;28;20454;-63
2021/04/06 13:19:34;;;;;;;3.42;2.25;;;18.40;75.20;;;;;;5058478;28;20089;-63
2021/04/06 13:22:02;;;;;;;3.28;2.00;;;18.30;75.70;;;;;;5042081;28;20047;-63